sensor_id;sensor_type;location;lat;lon;timestamp;P1;durP1;ratioP1;P2;durP2;ratioP2
25391;SDS011;13329;48.402;11.718;2022-08-01T00:00:03;2.38;;;1.80;;
25391;SDS011;13329;48.402;11.718;2022-08-01T00:02:29;2.72;;;1.98;;
25391;SDS011;13329;48.402;11.718;2022-08-01T00:04:55;4.35;;;2.30;;
25391;SDS011;13329;48.402;11.718;2022-08-01T00:07:21;3.27;;;2.20;;
25391;SDS011;13329;48.402;11.718;2022-08-01T00:09:46;2.90;;;1.80;;
25391;SDS011;13329;48.402;11.718;2022-08-01T00:12:11;3.42;;;2.10;;
25391;SDS011;13329;48.402;11.718;2022-08-01T00:14:36;4.28;;;2.20;;
25391;SDS011;13329;48.402;11.718;2022-08-01T00:17:01;2.72;;;2.17;;
25391;SDS011;13329;48.402;11.718;2022-08-01T00:19:27;4.75;;;2.35;;
25391;SDS011;13329;48.402;11.718;2022-08-01T00:21:52;3.10;;;1.80;;
25391;SDS011;13329;48.402;11.718;2022-08-01T00:24:17;2.23;;;1.93;;
25391;SDS011;13329;48.402;11.718;2022-08-01T00:26:42;3.13;;;2.00;;
25391;SDS011;13329;48.402;11.718;2022-08-01T00:29:08;3.60;;;2.07;;
25391;SDS011;13329;48.402;11.718;2022-08-01T00:31:33;2.50;;;2.00;;
25391;SDS011;13329;48.402;11.718;2022-08-01T00:33:58;5.27;;;2.13;;
25391;SDS011;13329;48.402;11.718;2022-08-01T00:36:23;3.73;;;2.20;;
25391;SDS011;13329;48.402;11.718;2022-08-01T00:38:48;2.97;;;2.30;;
25391;SDS011;13329;48.402;11.718;2022-08-01T00:41:13;3.13;;;2.22;;
25391;SDS011;13329;48.402;11.718;2022-08-01T00:43:39;4.35;;;1.98;;
25391;SDS011;13329;48.402;11.718;2022-08-01T00:46:04;4.27;;;2.17;;
25391;SDS011;13329;48.402;11.718;2022-08-01T00:48:29;2.60;;;1.87;;
25391;SDS011;13329;48.402;11.718;2022-08-01T00:50:54;3.77;;;2.10;;
25391;SDS011;13329;48.402;11.718;2022-08-01T00:53:19;2.10;;;1.90;;
25391;SDS011;13329;48.402;11.718;2022-08-01T00:55:45;2.70;;;2.20;;
25391;SDS011;13329;48.402;11.718;2022-08-01T00:58:11;2.60;;;2.13;;
25391;SDS011;13329;48.402;11.718;2022-08-01T01:00:36;4.07;;;2.23;;
25391;SDS011;13329;48.402;11.718;2022-08-01T01:03:01;3.77;;;2.10;;
25391;SDS011;13329;48.402;11.718;2022-08-01T01:05:27;4.40;;;2.22;;
25391;SDS011;13329;48.402;11.718;2022-08-01T01:08:14;2.70;;;2.20;;
25391;SDS011;13329;48.402;11.718;2022-08-01T01:10:48;2.58;;;2.00;;
25391;SDS011;13329;48.402;11.718;2022-08-01T01:13:33;3.10;;;1.85;;
25391;SDS011;13329;48.402;11.718;2022-08-01T01:16:01;3.05;;;2.10;;
25391;SDS011;13329;48.402;11.718;2022-08-01T01:18:33;2.15;;;1.95;;
25391;SDS011;13329;48.402;11.718;2022-08-01T01:23:34;2.90;;;2.10;;
25391;SDS011;13329;48.402;11.718;2022-08-01T01:31:13;2.80;;;2.33;;
25391;SDS011;13329;48.402;11.718;2022-08-01T01:33:39;3.70;;;2.30;;
25391;SDS011;13329;48.402;11.718;2022-08-01T01:36:05;3.83;;;2.38;;
25391;SDS011;13329;48.402;11.718;2022-08-01T01:38:33;3.78;;;2.50;;
25391;SDS011;13329;48.402;11.718;2022-08-01T01:40:59;3.42;;;2.10;;
25391;SDS011;13329;48.402;11.718;2022-08-01T01:43:25;2.45;;;2.25;;
25391;SDS011;13329;48.402;11.718;2022-08-01T01:45:51;2.42;;;1.90;;
25391;SDS011;13329;48.402;11.718;2022-08-01T01:48:18;2.92;;;1.95;;
25391;SDS011;13329;48.402;11.718;2022-08-01T01:50:44;4.22;;;2.58;;
25391;SDS011;13329;48.402;11.718;2022-08-01T01:53:10;3.10;;;2.20;;
25391;SDS011;13329;48.402;11.718;2022-08-01T01:55:37;4.03;;;2.28;;
25391;SDS011;13329;48.402;11.718;2022-08-01T01:58:03;3.33;;;2.53;;
25391;SDS011;13329;48.402;11.718;2022-08-01T02:00:30;3.20;;;2.58;;
25391;SDS011;13329;48.402;11.718;2022-08-01T02:02:55;2.75;;;2.30;;
25391;SDS011;13329;48.402;11.718;2022-08-01T02:05:21;2.45;;;1.90;;
25391;SDS011;13329;48.402;11.718;2022-08-01T02:07:47;3.35;;;2.58;;
25391;SDS011;13329;48.402;11.718;2022-08-01T02:10:14;4.45;;;2.53;;
25391;SDS011;13329;48.402;11.718;2022-08-01T02:12:41;2.92;;;2.03;;
25391;SDS011;13329;48.402;11.718;2022-08-01T02:15:07;2.58;;;1.88;;
25391;SDS011;13329;48.402;11.718;2022-08-01T02:17:34;3.47;;;2.10;;
25391;SDS011;13329;48.402;11.718;2022-08-01T02:20:02;2.97;;;2.40;;
25391;SDS011;13329;48.402;11.718;2022-08-01T02:22:29;2.30;;;2.10;;
25391;SDS011;13329;48.402;11.718;2022-08-01T02:27:43;2.80;;;2.30;;
25391;SDS011;13329;48.402;11.718;2022-08-01T02:30:10;2.60;;;2.10;;
25391;SDS011;13329;48.402;11.718;2022-08-01T02:32:38;4.80;;;2.53;;
25391;SDS011;13329;48.402;11.718;2022-08-01T02:35:04;5.40;;;2.45;;
25391;SDS011;13329;48.402;11.718;2022-08-01T02:37:33;3.58;;;2.00;;
25391;SDS011;13329;48.402;11.718;2022-08-01T02:39:59;2.95;;;2.40;;
25391;SDS011;13329;48.402;11.718;2022-08-01T02:42:25;5.30;;;2.60;;
25391;SDS011;13329;48.402;11.718;2022-08-01T02:44:51;2.92;;;2.40;;
25391;SDS011;13329;48.402;11.718;2022-08-01T02:47:17;4.43;;;2.63;;
25391;SDS011;13329;48.402;11.718;2022-08-01T02:49:45;3.63;;;2.25;;
25391;SDS011;13329;48.402;11.718;2022-08-01T02:52:13;4.28;;;2.58;;
25391;SDS011;13329;48.402;11.718;2022-08-01T02:54:39;3.13;;;2.20;;
25391;SDS011;13329;48.402;11.718;2022-08-01T02:57:05;3.15;;;2.20;;
25391;SDS011;13329;48.402;11.718;2022-08-01T02:59:31;3.40;;;2.20;;
25391;SDS011;13329;48.402;11.718;2022-08-01T03:01:57;2.83;;;2.13;;
25391;SDS011;13329;48.402;11.718;2022-08-01T03:04:23;3.83;;;2.40;;
25391;SDS011;13329;48.402;11.718;2022-08-01T03:06:49;3.50;;;2.08;;
25391;SDS011;13329;48.402;11.718;2022-08-01T03:09:15;3.55;;;2.40;;
25391;SDS011;13329;48.402;11.718;2022-08-01T03:11:41;2.83;;;2.10;;
25391;SDS011;13329;48.402;11.718;2022-08-01T03:14:07;3.33;;;2.13;;
25391;SDS011;13329;48.402;11.718;2022-08-01T03:16:33;4.05;;;2.13;;
25391;SDS011;13329;48.402;11.718;2022-08-01T03:19:00;4.28;;;2.20;;
25391;SDS011;13329;48.402;11.718;2022-08-01T03:21:26;7.70;;;2.55;;
25391;SDS011;13329;48.402;11.718;2022-08-01T03:23:52;3.97;;;2.22;;
25391;SDS011;13329;48.402;11.718;2022-08-01T03:26:21;3.25;;;2.08;;
25391;SDS011;13329;48.402;11.718;2022-08-01T03:28:47;3.85;;;2.47;;
25391;SDS011;13329;48.402;11.718;2022-08-01T03:31:13;3.45;;;2.03;;
25391;SDS011;13329;48.402;11.718;2022-08-01T03:33:39;3.17;;;2.10;;
25391;SDS011;13329;48.402;11.718;2022-08-01T03:36:04;3.80;;;2.35;;
25391;SDS011;13329;48.402;11.718;2022-08-01T03:38:29;4.40;;;2.43;;
25391;SDS011;13329;48.402;11.718;2022-08-01T03:40:56;3.47;;;2.25;;
25391;SDS011;13329;48.402;11.718;2022-08-01T03:43:29;3.00;;;2.08;;
25391;SDS011;13329;48.402;11.718;2022-08-01T03:45:55;2.35;;;2.00;;
25391;SDS011;13329;48.402;11.718;2022-08-01T03:48:27;3.55;;;2.08;;
25391;SDS011;13329;48.402;11.718;2022-08-01T03:50:53;3.17;;;2.28;;
25391;SDS011;13329;48.402;11.718;2022-08-01T03:53:22;4.20;;;2.03;;
25391;SDS011;13329;48.402;11.718;2022-08-01T03:55:48;2.83;;;2.13;;
25391;SDS011;13329;48.402;11.718;2022-08-01T03:58:14;3.08;;;2.08;;
25391;SDS011;13329;48.402;11.718;2022-08-01T04:00:39;4.13;;;2.10;;
25391;SDS011;13329;48.402;11.718;2022-08-01T04:03:05;3.00;;;2.30;;
25391;SDS011;13329;48.402;11.718;2022-08-01T04:05:31;3.65;;;2.53;;
25391;SDS011;13329;48.402;11.718;2022-08-01T04:07:56;3.08;;;2.13;;
25391;SDS011;13329;48.402;11.718;2022-08-01T04:10:22;3.88;;;2.30;;
25391;SDS011;13329;48.402;11.718;2022-08-01T04:12:48;3.22;;;2.25;;
25391;SDS011;13329;48.402;11.718;2022-08-01T04:15:13;3.57;;;2.73;;
25391;SDS011;13329;48.402;11.718;2022-08-01T04:17:39;2.78;;;2.30;;
25391;SDS011;13329;48.402;11.718;2022-08-01T04:20:04;5.97;;;2.57;;
25391;SDS011;13329;48.402;11.718;2022-08-01T04:22:29;3.50;;;2.10;;
25391;SDS011;13329;48.402;11.718;2022-08-01T04:24:55;2.92;;;2.10;;
25391;SDS011;13329;48.402;11.718;2022-08-01T04:27:23;3.47;;;2.38;;
25391;SDS011;13329;48.402;11.718;2022-08-01T04:29:49;3.83;;;2.60;;
25391;SDS011;13329;48.402;11.718;2022-08-01T04:32:15;3.17;;;2.00;;
25391;SDS011;13329;48.402;11.718;2022-08-01T04:34:41;3.97;;;2.55;;
25391;SDS011;13329;48.402;11.718;2022-08-01T04:37:10;3.55;;;2.40;;
25391;SDS011;13329;48.402;11.718;2022-08-01T04:39:35;3.08;;;2.17;;
25391;SDS011;13329;48.402;11.718;2022-08-01T04:42:02;2.92;;;2.28;;
25391;SDS011;13329;48.402;11.718;2022-08-01T04:44:29;5.05;;;2.28;;
25391;SDS011;13329;48.402;11.718;2022-08-01T04:46:54;3.83;;;2.20;;
25391;SDS011;13329;48.402;11.718;2022-08-01T04:49:21;4.00;;;2.13;;
25391;SDS011;13329;48.402;11.718;2022-08-01T04:51:53;4.67;;;2.43;;
25391;SDS011;13329;48.402;11.718;2022-08-01T04:54:23;6.07;;;2.30;;
25391;SDS011;13329;48.402;11.718;2022-08-01T04:56:48;2.33;;;1.95;;
25391;SDS011;13329;48.402;11.718;2022-08-01T04:59:13;2.97;;;2.00;;
25391;SDS011;13329;48.402;11.718;2022-08-01T05:01:57;4.63;;;1.98;;
25391;SDS011;13329;48.402;11.718;2022-08-01T05:04:22;3.15;;;2.17;;
25391;SDS011;13329;48.402;11.718;2022-08-01T05:06:48;4.30;;;2.00;;
25391;SDS011;13329;48.402;11.718;2022-08-01T05:09:13;4.30;;;2.13;;
25391;SDS011;13329;48.402;11.718;2022-08-01T05:11:38;2.40;;;1.85;;
25391;SDS011;13329;48.402;11.718;2022-08-01T05:14:03;2.40;;;2.00;;
25391;SDS011;13329;48.402;11.718;2022-08-01T05:16:28;5.20;;;2.20;;
25391;SDS011;13329;48.402;11.718;2022-08-01T05:18:53;4.25;;;2.35;;
25391;SDS011;13329;48.402;11.718;2022-08-01T05:21:18;3.15;;;2.40;;
25391;SDS011;13329;48.402;11.718;2022-08-01T05:23:44;2.83;;;1.80;;
25391;SDS011;13329;48.402;11.718;2022-08-01T05:26:12;3.03;;;1.90;;
25391;SDS011;13329;48.402;11.718;2022-08-01T05:28:38;3.00;;;1.98;;
25391;SDS011;13329;48.402;11.718;2022-08-01T05:31:03;2.83;;;1.93;;
25391;SDS011;13329;48.402;11.718;2022-08-01T05:33:29;4.13;;;2.00;;
25391;SDS011;13329;48.402;11.718;2022-08-01T05:35:54;1.98;;;1.67;;
25391;SDS011;13329;48.402;11.718;2022-08-01T05:38:19;2.87;;;2.07;;
25391;SDS011;13329;48.402;11.718;2022-08-01T05:40:44;2.67;;;2.03;;
25391;SDS011;13329;48.402;11.718;2022-08-01T05:43:09;3.53;;;2.20;;
25391;SDS011;13329;48.402;11.718;2022-08-01T05:45:34;4.10;;;2.13;;
25391;SDS011;13329;48.402;11.718;2022-08-01T05:48:00;2.63;;;1.83;;
25391;SDS011;13329;48.402;11.718;2022-08-01T05:50:25;3.30;;;2.00;;
25391;SDS011;13329;48.402;11.718;2022-08-01T05:52:50;2.55;;;1.90;;
25391;SDS011;13329;48.402;11.718;2022-08-01T05:55:15;4.40;;;2.13;;
25391;SDS011;13329;48.402;11.718;2022-08-01T05:57:40;2.80;;;1.87;;
25391;SDS011;13329;48.402;11.718;2022-08-01T06:00:06;3.00;;;2.17;;
25391;SDS011;13329;48.402;11.718;2022-08-01T06:02:31;4.43;;;2.00;;
25391;SDS011;13329;48.402;11.718;2022-08-01T06:04:56;2.63;;;1.98;;
25391;SDS011;13329;48.402;11.718;2022-08-01T06:07:21;2.57;;;1.80;;
25391;SDS011;13329;48.402;11.718;2022-08-01T06:09:46;2.97;;;1.97;;
25391;SDS011;13329;48.402;11.718;2022-08-01T06:12:11;4.30;;;2.13;;
25391;SDS011;13329;48.402;11.718;2022-08-01T06:14:37;4.30;;;1.75;;
25391;SDS011;13329;48.402;11.718;2022-08-01T06:17:02;4.10;;;2.23;;
25391;SDS011;13329;48.402;11.718;2022-08-01T06:19:27;2.97;;;2.03;;
25391;SDS011;13329;48.402;11.718;2022-08-01T06:21:52;2.47;;;1.90;;
25391;SDS011;13329;48.402;11.718;2022-08-01T06:24:17;3.47;;;2.30;;
25391;SDS011;13329;48.402;11.718;2022-08-01T06:26:43;3.00;;;1.90;;
25391;SDS011;13329;48.402;11.718;2022-08-01T06:29:08;3.70;;;2.30;;
25391;SDS011;13329;48.402;11.718;2022-08-01T06:31:33;2.90;;;1.75;;
25391;SDS011;13329;48.402;11.718;2022-08-01T06:33:58;3.53;;;1.80;;
25391;SDS011;13329;48.402;11.718;2022-08-01T06:36:23;3.35;;;2.00;;
25391;SDS011;13329;48.402;11.718;2022-08-01T06:38:48;3.10;;;2.03;;
25391;SDS011;13329;48.402;11.718;2022-08-01T06:41:13;4.87;;;2.03;;
25391;SDS011;13329;48.402;11.718;2022-08-01T06:43:39;3.50;;;1.90;;
25391;SDS011;13329;48.402;11.718;2022-08-01T06:46:04;4.93;;;2.20;;
25391;SDS011;13329;48.402;11.718;2022-08-01T06:48:29;2.90;;;1.93;;
25391;SDS011;13329;48.402;11.718;2022-08-01T06:50:54;3.67;;;1.87;;
25391;SDS011;13329;48.402;11.718;2022-08-01T06:53:32;4.15;;;2.00;;
25391;SDS011;13329;48.402;11.718;2022-08-01T06:55:58;2.13;;;1.70;;
25391;SDS011;13329;48.402;11.718;2022-08-01T06:58:23;3.22;;;1.98;;
25391;SDS011;13329;48.402;11.718;2022-08-01T07:00:48;3.30;;;1.97;;
25391;SDS011;13329;48.402;11.718;2022-08-01T07:03:13;3.97;;;1.70;;
25391;SDS011;13329;48.402;11.718;2022-08-01T07:05:38;2.67;;;1.80;;
25391;SDS011;13329;48.402;11.718;2022-08-01T07:08:03;2.67;;;1.80;;
25391;SDS011;13329;48.402;11.718;2022-08-01T07:10:29;2.90;;;1.88;;
25391;SDS011;13329;48.402;11.718;2022-08-01T07:12:55;2.70;;;1.87;;
25391;SDS011;13329;48.402;11.718;2022-08-01T07:15:20;2.77;;;1.90;;
25391;SDS011;13329;48.402;11.718;2022-08-01T07:17:51;3.72;;;1.90;;
25391;SDS011;13329;48.402;11.718;2022-08-01T07:20:16;3.88;;;2.20;;
25391;SDS011;13329;48.402;11.718;2022-08-01T07:22:41;3.05;;;1.67;;
25391;SDS011;13329;48.402;11.718;2022-08-01T07:25:07;3.77;;;1.93;;
25391;SDS011;13329;48.402;11.718;2022-08-01T07:27:32;5.25;;;1.90;;
25391;SDS011;13329;48.402;11.718;2022-08-01T07:29:58;2.65;;;1.85;;
25391;SDS011;13329;48.402;11.718;2022-08-01T07:32:23;4.03;;;2.33;;
25391;SDS011;13329;48.402;11.718;2022-08-01T07:34:48;3.63;;;1.93;;
25391;SDS011;13329;48.402;11.718;2022-08-01T07:37:13;2.90;;;1.70;;
25391;SDS011;13329;48.402;11.718;2022-08-01T07:39:38;3.47;;;1.80;;
25391;SDS011;13329;48.402;11.718;2022-08-01T07:42:04;2.40;;;1.87;;
25391;SDS011;13329;48.402;11.718;2022-08-01T07:44:29;2.27;;;1.67;;
25391;SDS011;13329;48.402;11.718;2022-08-01T07:46:54;3.80;;;1.90;;
25391;SDS011;13329;48.402;11.718;2022-08-01T07:49:19;2.33;;;1.80;;
25391;SDS011;13329;48.402;11.718;2022-08-01T07:51:46;3.20;;;1.50;;
25391;SDS011;13329;48.402;11.718;2022-08-01T07:54:11;3.50;;;1.83;;
25391;SDS011;13329;48.402;11.718;2022-08-01T07:56:36;3.60;;;1.90;;
25391;SDS011;13329;48.402;11.718;2022-08-01T07:59:02;3.22;;;1.80;;
25391;SDS011;13329;48.402;11.718;2022-08-01T08:01:27;3.63;;;2.00;;
25391;SDS011;13329;48.402;11.718;2022-08-01T08:03:52;3.73;;;1.60;;
25391;SDS011;13329;48.402;11.718;2022-08-01T08:06:17;3.17;;;1.90;;
25391;SDS011;13329;48.402;11.718;2022-08-01T08:08:42;2.30;;;1.77;;
25391;SDS011;13329;48.402;11.718;2022-08-01T08:11:08;2.57;;;1.47;;
25391;SDS011;13329;48.402;11.718;2022-08-01T08:13:33;4.83;;;1.90;;
25391;SDS011;13329;48.402;11.718;2022-08-01T08:15:58;6.33;;;1.73;;
25391;SDS011;13329;48.402;11.718;2022-08-01T08:18:24;2.50;;;1.75;;
25391;SDS011;13329;48.402;11.718;2022-08-01T08:20:49;4.00;;;2.33;;
25391;SDS011;13329;48.402;11.718;2022-08-01T08:23:15;3.25;;;2.13;;
25391;SDS011;13329;48.402;11.718;2022-08-01T08:25:59;4.40;;;2.20;;
25391;SDS011;13329;48.402;11.718;2022-08-01T08:28:24;2.60;;;1.90;;
25391;SDS011;13329;48.402;11.718;2022-08-01T08:30:49;3.63;;;2.22;;
25391;SDS011;13329;48.402;11.718;2022-08-01T08:33:14;4.93;;;2.07;;
25391;SDS011;13329;48.402;11.718;2022-08-01T08:35:40;2.90;;;2.10;;
25391;SDS011;13329;48.402;11.718;2022-08-01T08:38:08;3.72;;;2.20;;
25391;SDS011;13329;48.402;11.718;2022-08-01T08:40:34;3.28;;;1.95;;
25391;SDS011;13329;48.402;11.718;2022-08-01T08:43:00;3.72;;;1.75;;
25391;SDS011;13329;48.402;11.718;2022-08-01T08:45:25;3.00;;;2.00;;
25391;SDS011;13329;48.402;11.718;2022-08-01T08:47:51;3.00;;;1.67;;
25391;SDS011;13329;48.402;11.718;2022-08-01T08:50:17;5.88;;;1.77;;
25391;SDS011;13329;48.402;11.718;2022-08-01T08:52:42;2.90;;;2.00;;
25391;SDS011;13329;48.402;11.718;2022-08-01T08:55:08;3.15;;;2.28;;
25391;SDS011;13329;48.402;11.718;2022-08-01T08:57:33;3.35;;;2.10;;
25391;SDS011;13329;48.402;11.718;2022-08-01T08:59:59;4.18;;;1.80;;
25391;SDS011;13329;48.402;11.718;2022-08-01T09:02:24;2.35;;;1.77;;
25391;SDS011;13329;48.402;11.718;2022-08-01T09:04:49;2.95;;;1.38;;
25391;SDS011;13329;48.402;11.718;2022-08-01T09:07:15;4.00;;;2.42;;
25391;SDS011;13329;48.402;11.718;2022-08-01T09:09:40;2.42;;;1.98;;
25391;SDS011;13329;48.402;11.718;2022-08-01T09:12:05;2.90;;;1.90;;
25391;SDS011;13329;48.402;11.718;2022-08-01T09:14:31;4.63;;;2.43;;
25391;SDS011;13329;48.402;11.718;2022-08-01T09:17:01;2.00;;;1.23;;
25391;SDS011;13329;48.402;11.718;2022-08-01T09:19:27;3.35;;;1.77;;
25391;SDS011;13329;48.402;11.718;2022-08-01T09:21:59;2.40;;;1.80;;
25391;SDS011;13329;48.402;11.718;2022-08-01T09:24:25;2.90;;;1.80;;
25391;SDS011;13329;48.402;11.718;2022-08-01T09:26:51;3.05;;;1.67;;
25391;SDS011;13329;48.402;11.718;2022-08-01T09:29:18;5.35;;;1.70;;
25391;SDS011;13329;48.402;11.718;2022-08-01T09:31:43;3.88;;;1.67;;
25391;SDS011;13329;48.402;11.718;2022-08-01T09:34:09;2.47;;;1.80;;
25391;SDS011;13329;48.402;11.718;2022-08-01T09:36:48;2.80;;;1.58;;
25391;SDS011;13329;48.402;11.718;2022-08-01T09:39:16;1.50;;;1.33;;
25391;SDS011;13329;48.402;11.718;2022-08-01T09:41:42;2.58;;;1.70;;
25391;SDS011;13329;48.402;11.718;2022-08-01T09:44:07;2.33;;;1.60;;
25391;SDS011;13329;48.402;11.718;2022-08-01T09:46:32;2.63;;;1.70;;
25391;SDS011;13329;48.402;11.718;2022-08-01T09:49:01;2.33;;;1.57;;
25391;SDS011;13329;48.402;11.718;2022-08-01T09:51:31;2.75;;;1.70;;
25391;SDS011;13329;48.402;11.718;2022-08-01T09:53:56;4.03;;;1.80;;
25391;SDS011;13329;48.402;11.718;2022-08-01T09:56:22;3.05;;;1.73;;
25391;SDS011;13329;48.402;11.718;2022-08-01T10:01:15;2.55;;;1.55;;
25391;SDS011;13329;48.402;11.718;2022-08-01T10:03:40;2.43;;;1.87;;
25391;SDS011;13329;48.402;11.718;2022-08-01T10:06:20;1.53;;;1.43;;
25391;SDS011;13329;48.402;11.718;2022-08-01T10:08:46;2.42;;;1.73;;
25391;SDS011;13329;48.402;11.718;2022-08-01T10:11:12;2.20;;;1.70;;
25391;SDS011;13329;48.402;11.718;2022-08-01T10:13:37;2.92;;;1.90;;
25391;SDS011;13329;48.402;11.718;2022-08-01T10:16:03;2.97;;;1.73;;
25391;SDS011;13329;48.402;11.718;2022-08-01T10:18:30;4.55;;;1.70;;
25391;SDS011;13329;48.402;11.718;2022-08-01T10:20:56;2.70;;;1.58;;
25391;SDS011;13329;48.402;11.718;2022-08-01T10:23:22;1.63;;;1.20;;
25391;SDS011;13329;48.402;11.718;2022-08-01T10:25:48;2.72;;;1.70;;
25391;SDS011;13329;48.402;11.718;2022-08-01T10:28:14;2.33;;;1.52;;
25391;SDS011;13329;48.402;11.718;2022-08-01T10:30:41;1.92;;;1.40;;
25391;SDS011;13329;48.402;11.718;2022-08-01T10:33:07;2.30;;;1.52;;
25391;SDS011;13329;48.402;11.718;2022-08-01T10:35:32;2.75;;;1.73;;
25391;SDS011;13329;48.402;11.718;2022-08-01T10:37:58;3.85;;;1.77;;
25391;SDS011;13329;48.402;11.718;2022-08-01T10:40:23;4.57;;;1.50;;
25391;SDS011;13329;48.402;11.718;2022-08-01T10:42:48;2.28;;;1.90;;
25391;SDS011;13329;48.402;11.718;2022-08-01T10:45:14;2.45;;;1.67;;
25391;SDS011;13329;48.402;11.718;2022-08-01T10:53:09;2.42;;;1.42;;
25391;SDS011;13329;48.402;11.718;2022-08-01T10:55:48;2.65;;;1.67;;
25391;SDS011;13329;48.402;11.718;2022-08-01T10:58:13;2.13;;;1.33;;
25391;SDS011;13329;48.402;11.718;2022-08-01T11:00:39;2.15;;;1.50;;
25391;SDS011;13329;48.402;11.718;2022-08-01T11:03:04;2.03;;;1.40;;
25391;SDS011;13329;48.402;11.718;2022-08-01T11:05:33;4.93;;;1.40;;
25391;SDS011;13329;48.402;11.718;2022-08-01T11:08:03;2.15;;;1.27;;
25391;SDS011;13329;48.402;11.718;2022-08-01T11:10:37;2.15;;;1.27;;
25391;SDS011;13329;48.402;11.718;2022-08-01T11:13:03;2.08;;;1.50;;
25391;SDS011;13329;48.402;11.718;2022-08-01T11:15:32;2.90;;;1.48;;
25391;SDS011;13329;48.402;11.718;2022-08-01T11:17:58;2.80;;;1.30;;
25391;SDS011;13329;48.402;11.718;2022-08-01T11:20:24;2.15;;;1.38;;
25391;SDS011;13329;48.402;11.718;2022-08-01T11:25:25;2.58;;;1.13;;
25391;SDS011;13329;48.402;11.718;2022-08-01T11:30:34;2.20;;;1.08;;
25391;SDS011;13329;48.402;11.718;2022-08-01T11:32:59;1.20;;;1.10;;
25391;SDS011;13329;48.402;11.718;2022-08-01T11:35:24;0.60;;;0.53;;
25391;SDS011;13329;48.402;11.718;2022-08-01T11:37:51;3.15;;;0.80;;
25391;SDS011;13329;48.402;11.718;2022-08-01T11:40:18;1.17;;;0.70;;
25391;SDS011;13329;48.402;11.718;2022-08-01T11:42:43;2.58;;;0.88;;
25391;SDS011;13329;48.402;11.718;2022-08-01T11:45:09;2.27;;;0.80;;
25391;SDS011;13329;48.402;11.718;2022-08-01T11:47:52;1.73;;;0.90;;
25391;SDS011;13329;48.402;11.718;2022-08-01T11:52:43;0.95;;;0.63;;
25391;SDS011;13329;48.402;11.718;2022-08-01T11:55:10;2.22;;;0.80;;
25391;SDS011;13329;48.402;11.718;2022-08-01T11:57:35;1.73;;;0.70;;
25391;SDS011;13329;48.402;11.718;2022-08-01T12:02:31;0.98;;;0.82;;
25391;SDS011;13329;48.402;11.718;2022-08-01T12:04:58;1.23;;;0.82;;
25391;SDS011;13329;48.402;11.718;2022-08-01T12:07:24;1.40;;;0.80;;
25391;SDS011;13329;48.402;11.718;2022-08-01T12:10:09;1.80;;;0.98;;
25391;SDS011;13329;48.402;11.718;2022-08-01T12:12:35;1.67;;;0.80;;
25391;SDS011;13329;48.402;11.718;2022-08-01T12:15:03;1.20;;;0.70;;
25391;SDS011;13329;48.402;11.718;2022-08-01T12:17:34;1.60;;;0.82;;
25391;SDS011;13329;48.402;11.718;2022-08-01T12:20:00;1.25;;;0.73;;
25391;SDS011;13329;48.402;11.718;2022-08-01T12:22:25;1.13;;;0.80;;
25391;SDS011;13329;48.402;11.718;2022-08-01T12:24:51;2.93;;;0.90;;
25391;SDS011;13329;48.402;11.718;2022-08-01T12:27:29;1.90;;;0.90;;
25391;SDS011;13329;48.402;11.718;2022-08-01T12:29:57;0.77;;;0.73;;
25391;SDS011;13329;48.402;11.718;2022-08-01T12:32:24;1.50;;;0.80;;
25391;SDS011;13329;48.402;11.718;2022-08-01T12:34:50;1.83;;;0.90;;
25391;SDS011;13329;48.402;11.718;2022-08-01T12:37:16;1.48;;;0.93;;
25391;SDS011;13329;48.402;11.718;2022-08-01T12:39:41;0.90;;;0.75;;
25391;SDS011;13329;48.402;11.718;2022-08-01T12:42:07;1.85;;;0.93;;
25391;SDS011;13329;48.402;11.718;2022-08-01T12:44:32;1.38;;;0.95;;
25391;SDS011;13329;48.402;11.718;2022-08-01T12:46:58;1.67;;;0.80;;
25391;SDS011;13329;48.402;11.718;2022-08-01T12:49:23;1.15;;;0.90;;
25391;SDS011;13329;48.402;11.718;2022-08-01T12:51:49;1.10;;;0.73;;
25391;SDS011;13329;48.402;11.718;2022-08-01T12:54:15;1.13;;;0.80;;
25391;SDS011;13329;48.402;11.718;2022-08-01T12:56:40;0.70;;;0.60;;
25391;SDS011;13329;48.402;11.718;2022-08-01T12:59:27;1.77;;;1.10;;
25391;SDS011;13329;48.402;11.718;2022-08-01T13:01:52;1.30;;;0.70;;
25391;SDS011;13329;48.402;11.718;2022-08-01T13:04:18;2.13;;;0.77;;
25391;SDS011;13329;48.402;11.718;2022-08-01T13:06:43;1.27;;;0.80;;
25391;SDS011;13329;48.402;11.718;2022-08-01T13:09:08;0.88;;;0.77;;
25391;SDS011;13329;48.402;11.718;2022-08-01T13:11:35;1.67;;;0.80;;
25391;SDS011;13329;48.402;11.718;2022-08-01T13:14:01;0.70;;;0.70;;
25391;SDS011;13329;48.402;11.718;2022-08-01T13:16:26;1.83;;;0.80;;
25391;SDS011;13329;48.402;11.718;2022-08-01T13:18:52;1.07;;;0.73;;
25391;SDS011;13329;48.402;11.718;2022-08-01T13:21:18;3.88;;;0.80;;
25391;SDS011;13329;48.402;11.718;2022-08-01T13:26:40;1.38;;;0.98;;
25391;SDS011;13329;48.402;11.718;2022-08-01T13:29:07;1.90;;;0.90;;
25391;SDS011;13329;48.402;11.718;2022-08-01T13:31:33;3.53;;;1.40;;
25391;SDS011;13329;48.402;11.718;2022-08-01T13:33:58;2.80;;;1.27;;
25391;SDS011;13329;48.402;11.718;2022-08-01T13:36:23;5.57;;;1.17;;
25391;SDS011;13329;48.402;11.718;2022-08-01T13:38:51;1.95;;;1.27;;
25391;SDS011;13329;48.402;11.718;2022-08-01T13:41:35;3.58;;;1.27;;
25391;SDS011;13329;48.402;11.718;2022-08-01T13:44:01;1.57;;;1.10;;
25391;SDS011;13329;48.402;11.718;2022-08-01T13:46:26;2.50;;;1.00;;
25391;SDS011;13329;48.402;11.718;2022-08-01T13:48:51;1.87;;;1.20;;
25391;SDS011;13329;48.402;11.718;2022-08-01T13:51:16;4.03;;;1.42;;
25391;SDS011;13329;48.402;11.718;2022-08-01T13:53:41;2.90;;;1.20;;
25391;SDS011;13329;48.402;11.718;2022-08-01T13:56:06;5.50;;;1.10;;
25391;SDS011;13329;48.402;11.718;2022-08-01T13:58:31;2.97;;;1.40;;
25391;SDS011;13329;48.402;11.718;2022-08-01T14:00:57;1.95;;;1.30;;
25391;SDS011;13329;48.402;11.718;2022-08-01T14:03:22;2.60;;;1.33;;
25391;SDS011;13329;48.402;11.718;2022-08-01T14:05:47;2.35;;;1.30;;
25391;SDS011;13329;48.402;11.718;2022-08-01T14:08:12;1.63;;;1.47;;
25391;SDS011;13329;48.402;11.718;2022-08-01T14:10:38;3.63;;;1.38;;
25391;SDS011;13329;48.402;11.718;2022-08-01T14:13:03;3.30;;;1.60;;
25391;SDS011;13329;48.402;11.718;2022-08-01T14:15:28;1.57;;;1.10;;
25391;SDS011;13329;48.402;11.718;2022-08-01T14:17:53;2.03;;;1.30;;
25391;SDS011;13329;48.402;11.718;2022-08-01T14:20:19;4.10;;;1.27;;
25391;SDS011;13329;48.402;11.718;2022-08-01T14:22:45;2.47;;;1.27;;
25391;SDS011;13329;48.402;11.718;2022-08-01T14:25:10;2.08;;;1.30;;
25391;SDS011;13329;48.402;11.718;2022-08-01T14:27:35;2.60;;;1.50;;
25391;SDS011;13329;48.402;11.718;2022-08-01T14:30:01;2.05;;;1.52;;
25391;SDS011;13329;48.402;11.718;2022-08-01T14:32:26;4.03;;;1.70;;
25391;SDS011;13329;48.402;11.718;2022-08-01T14:34:52;2.93;;;1.67;;
25391;SDS011;13329;48.402;11.718;2022-08-01T14:37:17;3.17;;;1.40;;
25391;SDS011;13329;48.402;11.718;2022-08-01T14:39:42;1.80;;;1.10;;
25391;SDS011;13329;48.402;11.718;2022-08-01T14:42:07;3.13;;;1.37;;
25391;SDS011;13329;48.402;11.718;2022-08-01T14:44:32;2.20;;;1.30;;
25391;SDS011;13329;48.402;11.718;2022-08-01T14:46:58;3.43;;;1.27;;
25391;SDS011;13329;48.402;11.718;2022-08-01T14:49:23;1.27;;;0.87;;
25391;SDS011;13329;48.402;11.718;2022-08-01T14:51:48;1.97;;;1.10;;
25391;SDS011;13329;48.402;11.718;2022-08-01T14:54:13;1.23;;;1.03;;
25391;SDS011;13329;48.402;11.718;2022-08-01T14:56:38;3.20;;;1.10;;
25391;SDS011;13329;48.402;11.718;2022-08-01T14:59:03;1.98;;;1.27;;